Time;durP1;ratioP1;P1;durP2;ratioP2;P2;SDS_P1;SDS_P2;PMS_P1;PMS_P2;Temp;Humidity;BMP_temperature;BMP_pressure;BME280_temperature;BME280_humidity;BME280_pressure;Samples;Min_cycle;Max_cycle;Signal;HPM_P1;HPM_P2
2022/12/29 00:00:03;;;;;;;2.17;2.07;;;;;;;;;;4895942;29;20735;-87
2022/12/29 00:02:38;;;;;;;2.17;2.07;;;;;;;;;;4888380;29;20234;-87
2022/12/29 00:05:04;;;;;;;2.33;2.13;;;;;;;;;;4895021;29;20232;-87
2022/12/29 00:07:29;;;;;;;2.23;2.13;;;;;;;;;;4886307;29;20247;-82
2022/12/29 00:09:55;;;;;;;2.17;2.07;;;;;;;;;;4888525;29;20236;-87
2022/12/29 00:12:20;;;;;;;2.50;2.30;;;;;;;;;;4889678;29;20243;-86
2022/12/29 00:17:30;;;;;;;2.70;2.30;;;;;;;;;;4892093;29;20736;-87
2022/12/29 00:36:38;;;;;;;2.10;1.90;;;;;;;;;;4889455;29;20224;-85
2022/12/29 00:44:04;;;;;;;2.00;1.83;;;;;;;;;;4877432;29;20268;-86
2022/12/29 00:45:05;;;;;;;1.93;1.83;;;;;;;;;;4870397;29;20229;-89
2022/12/29 00:47:31;;;;;;;2.23;1.90;;;;;;;;;;4863073;29;20296;-88
2022/12/29 00:49:59;;;;;;;2.10;2.00;;;;;;;;;;4879744;29;20228;-86
2022/12/29 00:52:26;;;;;;;2.10;2.00;;;;;;;;;;4900671;29;20255;-89
2022/12/29 00:54:54;;;;;;;1.97;1.87;;;;;;;;;;4882719;29;20241;-87
2022/12/29 00:57:20;;;;;;;1.80;1.70;;;;;;;;;;4881404;29;20727;-85
2022/12/29 00:59:45;;;;;;;1.97;1.87;;;;;;;;;;4863821;29;20246;-87
2022/12/29 01:02:14;;;;;;;2.60;2.00;;;;;;;;;;4869305;29;20238;-86
2022/12/29 01:04:42;;;;;;;1.80;1.60;;;;;;;;;;4896860;29;20426;-88
2022/12/29 01:07:07;;;;;;;1.80;1.70;;;;;;;;;;4868914;29;20696;-87
2022/12/29 01:12:39;;;;;;;1.83;1.73;;;;;;;;;;4889573;29;20751;-88
2022/12/29 01:15:03;;;;;;;1.70;1.60;;;;;;;;;;4891543;29;20275;-86
2022/12/29 01:17:31;;;;;;;1.80;1.70;;;;;;;;;;4894399;29;20221;-87
2022/12/29 01:19:59;;;;;;;1.90;1.70;;;;;;;;;;4885207;29;20239;-86
2022/12/29 01:22:24;;;;;;;1.70;1.60;;;;;;;;;;4884860;29;20229;-88
2022/12/29 01:24:50;;;;;;;1.53;1.43;;;;;;;;;;4889812;29;20711;-86
2022/12/29 01:27:15;;;;;;;3.20;1.83;;;;;;;;;;4884573;29;20231;-88
2022/12/29 01:29:41;;;;;;;1.77;1.67;;;;;;;;;;4866688;29;20618;-87
2022/12/29 01:32:09;;;;;;;1.70;1.60;;;;;;;;;;4866399;29;20229;-87
2022/12/29 01:34:34;;;;;;;1.60;1.50;;;;;;;;;;4884994;29;20243;-85
2022/12/29 01:37:02;;;;;;;3.13;1.90;;;;;;;;;;4882873;29;20229;-88
2022/12/29 01:39:30;;;;;;;1.60;1.50;;;;;;;;;;4891947;29;20228;-87
2022/12/29 01:41:55;;;;;;;1.70;1.60;;;;;;;;;;4880838;29;20232;-86
2022/12/29 01:45:19;;;;;;;1.80;1.70;;;;;;;;;;4865893;29;20249;-86
2022/12/29 01:47:50;;;;;;;1.80;1.70;;;;;;;;;;4831978;29;20230;-88
2022/12/29 01:50:28;;;;;;;1.87;1.77;;;;;;;;;;4846003;29;20225;-87
2022/12/29 01:53:05;;;;;;;1.77;1.67;;;;;;;;;;4848341;29;20225;-88
2022/12/29 01:55:39;;;;;;;1.83;1.40;;;;;;;;;;4867043;29;20281;-86
2022/12/29 01:58:09;;;;;;;1.63;1.53;;;;;;;;;;4890960;29;20256;-86
2022/12/29 02:00:36;;;;;;;2.00;1.83;;;;;;;;;;4868487;29;20260;-87
2022/12/29 02:03:05;;;;;;;1.90;1.80;;;;;;;;;;4869868;29;20260;-87
2022/12/29 02:05:39;;;;;;;1.80;1.70;;;;;;;;;;4888294;29;20264;-87
2022/12/29 02:08:08;;;;;;;2.20;1.73;;;;;;;;;;4893584;29;20723;-86
2022/12/29 02:10:36;;;;;;;1.80;1.70;;;;;;;;;;4895540;29;20237;-87
2022/12/29 02:13:02;;;;;;;2.23;2.00;;;;;;;;;;4868822;29;20308;-86
2022/12/29 02:15:47;;;;;;;2.00;1.90;;;;;;;;;;4900992;29;20239;-88
2022/12/29 02:18:18;;;;;;;1.83;1.73;;;;;;;;;;4896781;29;20237;-85
2022/12/29 02:21:08;;;;;;;2.17;2.07;;;;;;;;;;4906677;29;20237;-87
2022/12/29 02:23:43;;;;;;;1.90;1.80;;;;;;;;;;4884184;29;20221;-86
2022/12/29 02:26:53;;;;;;;1.90;1.80;;;;;;;;;;4892037;29;20236;-89
2022/12/29 02:29:19;;;;;;;1.70;1.60;;;;;;;;;;4866967;29;20232;-88
2022/12/29 02:31:56;;;;;;;1.70;1.60;;;;;;;;;;4918865;29;20787;-88
2022/12/29 02:34:43;;;;;;;1.77;1.67;;;;;;;;;;4902368;29;20228;-88
2022/12/29 02:37:22;;;;;;;2.03;1.83;;;;;;;;;;4913443;29;20229;-86
2022/12/29 02:39:50;;;;;;;1.73;1.63;;;;;;;;;;4870572;29;20235;-86
2022/12/29 02:42:34;;;;;;;1.90;1.80;;;;;;;;;;4880841;29;20260;-88
2022/12/29 02:45:03;;;;;;;2.00;1.60;;;;;;;;;;4888750;29;20655;-87
2022/12/29 02:47:37;;;;;;;1.63;1.53;;;;;;;;;;4914616;29;20228;-87
2022/12/29 02:50:15;;;;;;;1.60;1.50;;;;;;;;;;4869887;29;20228;-88
2022/12/29 02:52:48;;;;;;;1.57;1.47;;;;;;;;;;4910019;29;20287;-87
2022/12/29 02:55:14;;;;;;;1.60;1.50;;;;;;;;;;4886666;28;20227;-89
2022/12/29 02:57:39;;;;;;;1.60;1.50;;;;;;;;;;4896501;29;20232;-88
2022/12/29 03:00:11;;;;;;;2.00;1.67;;;;;;;;;;4888000;29;20229;-87
2022/12/29 03:03:35;;;;;;;1.50;1.40;;;;;;;;;;4888190;29;20255;-88
2022/12/29 03:06:32;;;;;;;1.73;1.63;;;;;;;;;;4823303;29;20311;-88
2022/12/29 03:09:01;;;;;;;1.40;1.30;;;;;;;;;;4812746;29;20231;-88
2022/12/29 03:17:23;;;;;;;1.40;1.30;;;;;;;;;;4886069;29;20676;-87
2022/12/29 03:19:51;;;;;;;1.17;1.10;;;;;;;;;;4884936;29;20220;-88
2022/12/29 03:22:28;;;;;;;1.40;1.10;;;;;;;;;;4876607;29;20230;-86
2022/12/29 03:25:12;;;;;;;1.60;1.50;;;;;;;;;;4898173;29;20266;-87
2022/12/29 03:27:43;;;;;;;1.60;1.50;;;;;;;;;;4908681;29;20750;-86
2022/12/29 03:30:09;;;;;;;1.20;1.20;;;;;;;;;;4871565;29;20235;-85
2022/12/29 03:32:52;;;;;;;2.27;1.27;;;;;;;;;;4861797;29;20237;-86
2022/12/29 03:35:21;;;;;;;1.67;1.30;;;;;;;;;;4886936;29;20220;-85
2022/12/29 03:37:58;;;;;;;1.20;1.10;;;;;;;;;;4901369;29;20279;-86
2022/12/29 03:40:23;;;;;;;1.40;1.30;;;;;;;;;;4886794;29;20219;-87
2022/12/29 03:42:49;;;;;;;1.17;1.13;;;;;;;;;;4880066;29;20225;-87
2022/12/29 03:45:14;;;;;;;1.97;1.37;;;;;;;;;;4894114;29;20283;-84
2022/12/29 03:47:40;;;;;;;1.30;1.20;;;;;;;;;;4868487;29;20226;-86
2022/12/29 03:50:08;;;;;;;1.33;1.23;;;;;;;;;;4890329;29;20243;-84
2022/12/29 03:52:40;;;;;;;1.47;1.37;;;;;;;;;;4871142;29;20232;-86
2022/12/29 03:55:06;;;;;;;1.90;1.27;;;;;;;;;;4883180;29;20231;-86
2022/12/29 03:57:31;;;;;;;1.20;1.20;;;;;;;;;;4879914;29;20324;-85
2022/12/29 04:00:00;;;;;;;1.77;1.23;;;;;;;;;;4887542;29;20324;-87
2022/12/29 04:02:29;;;;;;;2.20;1.30;;;;;;;;;;4883632;29;20608;-87
2022/12/29 04:04:58;;;;;;;1.50;1.40;;;;;;;;;;4879601;29;20237;-87
2022/12/29 04:07:23;;;;;;;1.00;1.00;;;;;;;;;;4906073;29;20264;-86
2022/12/29 04:09:54;;;;;;;1.20;1.20;;;;;;;;;;4864130;29;20221;-87
2022/12/29 04:12:23;;;;;;;1.30;1.23;;;;;;;;;;4873328;29;20252;-85
2022/12/29 04:14:51;;;;;;;1.30;1.20;;;;;;;;;;4864983;29;20220;-83
2022/12/29 04:17:20;;;;;;;1.07;1.07;;;;;;;;;;4884924;29;20240;-85
2022/12/29 04:19:49;;;;;;;1.20;1.10;;;;;;;;;;4886375;29;20224;-86
2022/12/29 04:22:14;;;;;;;1.10;1.10;;;;;;;;;;4901283;29;20310;-87
2022/12/29 04:24:40;;;;;;;1.57;1.30;;;;;;;;;;4885170;29;20228;-87
2022/12/29 04:27:12;;;;;;;1.10;1.10;;;;;;;;;;4909891;29;20323;-87
2022/12/29 04:29:54;;;;;;;1.90;1.33;;;;;;;;;;4877524;29;20217;-86
2022/12/29 04:32:45;;;;;;;2.07;1.10;;;;;;;;;;4884402;29;20232;-85
2022/12/29 04:35:12;;;;;;;1.27;1.27;;;;;;;;;;4885264;29;20300;-85
2022/12/29 04:37:39;;;;;;;1.00;1.00;;;;;;;;;;4857311;29;20225;-85
2022/12/29 04:40:05;;;;;;;0.90;0.90;;;;;;;;;;4874246;29;20229;-88
2022/12/29 04:42:34;;;;;;;1.00;1.00;;;;;;;;;;4882267;29;20240;-87
2022/12/29 04:44:59;;;;;;;1.10;1.10;;;;;;;;;;4893768;29;20228;-87
2022/12/29 04:47:43;;;;;;;1.10;1.10;;;;;;;;;;4908026;29;20239;-85
2022/12/29 04:50:31;;;;;;;1.63;1.33;;;;;;;;;;4886368;29;20269;-85
2022/12/29 04:53:12;;;;;;;1.50;1.10;;;;;;;;;;4891977;29;20240;-86
2022/12/29 04:55:38;;;;;;;0.90;0.90;;;;;;;;;;4880984;29;20224;-85
2022/12/29 04:58:07;;;;;;;1.30;1.20;;;;;;;;;;4889741;29;20607;-87
2022/12/29 05:00:35;;;;;;;0.90;0.90;;;;;;;;;;4876787;29;20233;-86
2022/12/29 05:03:03;;;;;;;0.87;0.87;;;;;;;;;;4891129;29;20283;-87
2022/12/29 05:05:29;;;;;;;0.90;0.90;;;;;;;;;;4885892;29;20228;-85
2022/12/29 05:07:56;;;;;;;1.00;1.00;;;;;;;;;;4899496;29;20612;-85
2022/12/29 05:10:21;;;;;;;1.03;1.03;;;;;;;;;;4859637;29;20235;-84
2022/12/29 05:12:53;;;;;;;0.93;0.93;;;;;;;;;;4903691;29;20234;-87
2022/12/29 05:15:22;;;;;;;0.90;0.90;;;;;;;;;;4877075;29;20225;-83
2022/12/29 05:17:49;;;;;;;0.90;0.90;;;;;;;;;;4908235;29;20220;-85
2022/12/29 05:20:17;;;;;;;0.87;0.87;;;;;;;;;;4902546;29;20255;-84
2022/12/29 05:22:43;;;;;;;0.80;0.80;;;;;;;;;;4884039;29;20229;-84
2022/12/29 05:25:08;;;;;;;1.37;0.87;;;;;;;;;;4882501;29;20226;-86
2022/12/29 05:27:45;;;;;;;0.90;0.90;;;;;;;;;;4869429;29;20234;-83
2022/12/29 05:30:19;;;;;;;0.87;0.87;;;;;;;;;;4885355;29;20232;-85
2022/12/29 05:32:45;;;;;;;1.10;1.00;;;;;;;;;;4884765;29;20233;-87
2022/12/29 05:35:12;;;;;;;1.00;1.00;;;;;;;;;;4882495;29;20227;-85
2022/12/29 05:37:38;;;;;;;0.80;0.80;;;;;;;;;;4876885;29;20224;-85
2022/12/29 05:40:05;;;;;;;1.10;0.83;;;;;;;;;;4883527;29;20233;-86
2022/12/29 05:42:36;;;;;;;0.83;0.80;;;;;;;;;;4864675;29;20266;-86
2022/12/29 05:45:28;;;;;;;0.90;0.90;;;;;;;;;;4879617;29;20226;-85
2022/12/29 05:48:03;;;;;;;0.73;0.73;;;;;;;;;;4858208;29;20237;-85
2022/12/29 05:50:49;;;;;;;0.73;0.70;;;;;;;;;;4891011;29;20221;-87
2022/12/29 05:53:17;;;;;;;1.00;0.80;;;;;;;;;;4890380;29;20261;-87
2022/12/29 05:55:43;;;;;;;0.67;0.63;;;;;;;;;;4863540;29;20507;-87
2022/12/29 05:58:09;;;;;;;1.03;0.70;;;;;;;;;;4865408;29;20333;-83
2022/12/29 06:00:35;;;;;;;0.73;0.70;;;;;;;;;;4900802;29;20241;-85
2022/12/29 06:03:01;;;;;;;0.77;0.77;;;;;;;;;;4892533;29;20277;-86
2022/12/29 06:05:27;;;;;;;0.60;0.60;;;;;;;;;;4896230;29;20271;-85
2022/12/29 06:07:52;;;;;;;1.60;0.80;;;;;;;;;;4877723;29;20257;-86
2022/12/29 06:10:18;;;;;;;1.07;0.50;;;;;;;;;;4863611;29;20608;-85
2022/12/29 06:12:56;;;;;;;0.50;0.50;;;;;;;;;;4885947;29;20284;-85
2022/12/29 06:15:22;;;;;;;0.77;0.50;;;;;;;;;;4875470;29;20245;-86
2022/12/29 06:17:49;;;;;;;1.27;0.70;;;;;;;;;;4886382;29;20222;-84
2022/12/29 06:20:16;;;;;;;0.70;0.70;;;;;;;;;;4870908;29;20229;-84
2022/12/29 06:22:45;;;;;;;0.87;0.60;;;;;;;;;;4889922;29;20354;-85
2022/12/29 06:25:14;;;;;;;0.53;0.50;;;;;;;;;;4872487;29;20724;-84
2022/12/29 06:27:42;;;;;;;0.60;0.60;;;;;;;;;;4881460;29;20626;-85
2022/12/29 06:30:09;;;;;;;0.50;0.50;;;;;;;;;;4863572;29;20254;-86
2022/12/29 06:32:37;;;;;;;0.60;0.60;;;;;;;;;;4852233;29;20233;-84
2022/12/29 06:35:07;;;;;;;1.40;0.57;;;;;;;;;;4866712;29;20236;-86
2022/12/29 06:37:39;;;;;;;0.53;0.53;;;;;;;;;;4870264;29;20222;-88
2022/12/29 06:40:08;;;;;;;0.83;0.60;;;;;;;;;;4889530;29;20247;-85
2022/12/29 06:42:54;;;;;;;0.83;0.40;;;;;;;;;;4877877;29;20240;-87
2022/12/29 06:45:38;;;;;;;0.50;0.40;;;;;;;;;;4886046;29;20232;-88
2022/12/29 06:48:07;;;;;;;0.73;0.40;;;;;;;;;;4882823;29;20221;-86
2022/12/29 06:50:33;;;;;;;1.13;0.50;;;;;;;;;;4870279;29;20817;-86
2022/12/29 06:52:58;;;;;;;0.50;0.50;;;;;;;;;;4902650;29;20236;-88
2022/12/29 06:55:24;;;;;;;0.30;0.30;;;;;;;;;;4884971;29;20773;-87
2022/12/29 06:57:52;;;;;;;0.77;0.50;;;;;;;;;;4896108;29;20319;-82
2022/12/29 07:00:17;;;;;;;0.73;0.40;;;;;;;;;;4898232;29;20716;-85
2022/12/29 07:02:45;;;;;;;5.40;4.07;;;;;;;;;;4896247;29;20243;-84
2022/12/29 07:05:11;;;;;;;1.00;1.00;;;;;;;;;;4889008;29;20217;-86
2022/12/29 07:07:39;;;;;;;0.90;0.60;;;;;;;;;;4882364;29;20225;-85
2022/12/29 07:10:05;;;;;;;0.97;0.70;;;;;;;;;;4895078;29;20233;-85
2022/12/29 07:12:30;;;;;;;0.83;0.70;;;;;;;;;;4888608;29;20360;-87
2022/12/29 07:14:58;;;;;;;1.63;0.90;;;;;;;;;;4867939;29;20234;-86
2022/12/29 07:17:26;;;;;;;0.60;0.60;;;;;;;;;;4887944;29;20795;-84
2022/12/29 07:19:51;;;;;;;0.50;0.50;;;;;;;;;;4903118;29;20225;-81
2022/12/29 07:22:17;;;;;;;0.53;0.53;;;;;;;;;;4870033;29;20251;-84
2022/12/29 07:24:47;;;;;;;1.20;1.10;;;;;;;;;;4878761;29;20225;-82
2022/12/29 07:27:13;;;;;;;0.60;0.60;;;;;;;;;;4881565;29;20253;-84
2022/12/29 07:29:41;;;;;;;0.70;0.63;;;;;;;;;;4881540;29;20659;-82
2022/12/29 07:32:09;;;;;;;1.67;0.63;;;;;;;;;;4881968;29;20229;-84
2022/12/29 07:34:41;;;;;;;1.50;0.40;;;;;;;;;;4888231;29;20228;-82
2022/12/29 07:37:10;;;;;;;0.40;0.40;;;;;;;;;;4894524;29;20231;-82
2022/12/29 07:39:35;;;;;;;0.50;0.40;;;;;;;;;;4903297;29;20252;-86
2022/12/29 07:42:01;;;;;;;0.33;0.33;;;;;;;;;;4889807;29;20280;-83
2022/12/29 07:44:38;;;;;;;0.83;0.60;;;;;;;;;;4899843;29;20235;-83
2022/12/29 07:47:15;;;;;;;0.50;0.50;;;;;;;;;;4897975;29;20232;-85
2022/12/29 07:49:43;;;;;;;1.00;0.90;;;;;;;;;;4889851;29;20252;-85
2022/12/29 07:52:10;;;;;;;1.20;0.60;;;;;;;;;;4890173;29;20233;-83
2022/12/29 07:54:36;;;;;;;0.80;0.30;;;;;;;;;;4897760;29;20358;-83
2022/12/29 07:57:01;;;;;;;0.60;0.40;;;;;;;;;;4875554;29;20737;-84
2022/12/29 07:59:31;;;;;;;2.23;0.53;;;;;;;;;;4869352;29;20249;-85
2022/12/29 08:02:00;;;;;;;0.53;0.30;;;;;;;;;;4867611;29;20598;-87
2022/12/29 08:04:25;;;;;;;1.10;0.50;;;;;;;;;;4880681;29;20350;-84
2022/12/29 08:06:51;;;;;;;6.50;4.93;;;;;;;;;;4890124;29;20272;-82
2022/12/29 08:09:19;;;;;;;3.20;2.13;;;;;;;;;;4887157;29;20233;-86
2022/12/29 08:11:44;;;;;;;2.50;2.30;;;;;;;;;;4891563;29;20240;-81
2022/12/29 08:14:10;;;;;;;1.33;0.90;;;;;;;;;;4884944;29;20233;-84
2022/12/29 08:16:35;;;;;;;0.90;0.90;;;;;;;;;;4883636;29;20233;-85
2022/12/29 08:19:01;;;;;;;2.13;0.50;;;;;;;;;;4887348;29;20224;-86
2022/12/29 08:21:27;;;;;;;0.83;0.60;;;;;;;;;;4893399;29;20249;-86
2022/12/29 08:23:53;;;;;;;0.50;0.40;;;;;;;;;;4867192;29;20218;-83
2022/12/29 08:26:18;;;;;;;0.97;0.40;;;;;;;;;;4855240;29;20661;-87
2022/12/29 08:28:44;;;;;;;1.10;0.60;;;;;;;;;;4890160;29;20240;-84
2022/12/29 08:31:09;;;;;;;0.57;0.50;;;;;;;;;;4893910;29;20230;-83
2022/12/29 08:33:38;;;;;;;1.40;0.47;;;;;;;;;;4899349;29;20229;-83
2022/12/29 08:36:09;;;;;;;0.80;0.47;;;;;;;;;;4899463;29;20217;-81
2022/12/29 08:38:34;;;;;;;1.10;0.63;;;;;;;;;;4872819;29;20252;-85
2022/12/29 08:41:01;;;;;;;0.37;0.37;;;;;;;;;;4888344;29;20249;-84
2022/12/29 08:43:31;;;;;;;1.33;0.50;;;;;;;;;;4875081;29;20772;-85
2022/12/29 08:46:00;;;;;;;0.77;0.40;;;;;;;;;;4890877;29;20225;-83
2022/12/29 08:48:30;;;;;;;2.10;0.60;;;;;;;;;;4860641;29;20225;-85
2022/12/29 08:50:56;;;;;;;0.93;0.40;;;;;;;;;;4887514;29;20233;-82
2022/12/29 08:53:22;;;;;;;1.57;0.50;;;;;;;;;;4894252;29;20233;-83
2022/12/29 08:55:47;;;;;;;1.33;0.60;;;;;;;;;;4875522;29;20582;-82
2022/12/29 08:58:16;;;;;;;1.03;0.50;;;;;;;;;;4887209;29;20225;-83
2022/12/29 09:00:42;;;;;;;1.50;0.50;;;;;;;;;;4896388;29;20230;-82
2022/12/29 09:03:12;;;;;;;1.57;0.60;;;;;;;;;;4874548;29;20236;-86
2022/12/29 09:05:37;;;;;;;1.00;0.50;;;;;;;;;;4876009;29;20240;-82
2022/12/29 09:08:04;;;;;;;0.63;0.43;;;;;;;;;;4885590;29;20230;-80
2022/12/29 09:10:29;;;;;;;0.50;0.50;;;;;;;;;;4878656;29;20739;-85
2022/12/29 09:12:57;;;;;;;1.47;0.43;;;;;;;;;;4881208;29;20285;-82
2022/12/29 09:15:23;;;;;;;1.63;0.77;;;;;;;;;;4887102;29;21052;-85
2022/12/29 09:17:48;;;;;;;2.03;1.73;;;;;;;;;;4883824;29;20237;-85
2022/12/29 09:20:16;;;;;;;6.20;4.40;;;;;;;;;;4886166;29;20221;-83
2022/12/29 09:22:44;;;;;;;10.10;5.60;;;;;;;;;;4889345;29;20237;-83
2022/12/29 09:25:14;;;;;;;22.10;10.43;;;;;;;;;;4887955;29;20218;-84
2022/12/29 09:27:40;;;;;;;12.27;7.70;;;;;;;;;;4890230;29;20278;-83
2022/12/29 09:30:10;;;;;;;21.60;14.00;;;;;;;;;;4884390;29;20221;-84
2022/12/29 09:32:38;;;;;;;4.03;2.60;;;;;;;;;;4856852;29;20245;-83
2022/12/29 09:35:04;;;;;;;10.13;6.30;;;;;;;;;;4897610;29;20225;-87
2022/12/29 09:37:30;;;;;;;2.20;1.27;;;;;;;;;;4887863;29;20233;-83
2022/12/29 09:39:56;;;;;;;2.90;1.00;;;;;;;;;;4898375;29;20229;-85
2022/12/29 09:42:29;;;;;;;1.00;0.80;;;;;;;;;;4905641;29;20246;-84
2022/12/29 09:45:02;;;;;;;2.03;1.00;;;;;;;;;;4908638;29;20730;-86
2022/12/29 09:47:27;;;;;;;3.50;0.80;;;;;;;;;;4904945;29;20790;-83
2022/12/29 09:50:09;;;;;;;1.50;0.80;;;;;;;;;;4894507;29;20233;-84
2022/12/29 09:52:43;;;;;;;1.13;0.80;;;;;;;;;;4911281;29;20227;-82
2022/12/29 09:55:11;;;;;;;1.47;0.90;;;;;;;;;;4903841;29;20229;-82
2022/12/29 09:57:56;;;;;;;1.93;0.97;;;;;;;;;;4892595;29;20224;-85
2022/12/29 10:00:37;;;;;;;4.53;1.00;;;;;;;;;;4893869;29;20259;-82
2022/12/29 10:03:22;;;;;;;1.43;0.70;;;;;;;;;;4891936;29;20243;-82
2022/12/29 10:05:50;;;;;;;2.03;0.80;;;;;;;;;;4888545;29;20225;-84
2022/12/29 10:08:36;;;;;;;2.23;0.87;;;;;;;;;;4900196;29;20331;-82
2022/12/29 10:11:21;;;;;;;1.93;0.80;;;;;;;;;;4912068;29;20229;-85
2022/12/29 10:14:25;;;;;;;1.57;0.70;;;;;;;;;;4923668;29;20288;-83
2022/12/29 10:17:25;;;;;;;3.67;0.80;;;;;;;;;;4874855;29;20231;-84
2022/12/29 10:20:01;;;;;;;6.47;1.10;;;;;;;;;;4888801;29;20692;-86
2022/12/29 10:22:58;;;;;;;1.07;0.80;;;;;;;;;;4884924;29;20243;-86
2022/12/29 10:25:25;;;;;;;1.60;0.90;;;;;;;;;;4904543;29;20233;-86
2022/12/29 10:27:52;;;;;;;1.30;0.80;;;;;;;;;;4885307;29;20237;-84
2022/12/29 10:30:20;;;;;;;1.53;0.87;;;;;;;;;;4902019;29;20224;-81
2022/12/29 10:33:09;;;;;;;2.67;1.13;;;;;;;;;;4884624;29;20239;-83
2022/12/29 10:35:37;;;;;;;3.20;0.90;;;;;;;;;;4890236;29;20217;-86
2022/12/29 10:38:23;;;;;;;2.83;1.37;;;;;;;;;;4904621;29;20329;-88
2022/12/29 10:41:00;;;;;;;2.27;1.13;;;;;;;;;;4899550;29;20236;-86
2022/12/29 10:43:30;;;;;;;1.63;0.80;;;;;;;;;;4900642;29;20225;-84
2022/12/29 10:46:05;;;;;;;1.87;0.87;;;;;;;;;;4911259;29;20224;-86
2022/12/29 10:48:32;;;;;;;1.90;1.00;;;;;;;;;;4890800;29;20223;-87
2022/12/29 10:51:01;;;;;;;2.73;1.20;;;;;;;;;;4874999;29;20644;-84
2022/12/29 10:53:53;;;;;;;1.87;1.20;;;;;;;;;;4873703;29;20240;-84
2022/12/29 10:56:25;;;;;;;1.83;0.90;;;;;;;;;;4898028;29;20316;-83
2022/12/29 10:58:55;;;;;;;3.20;1.10;;;;;;;;;;4896972;29;20633;-84
2022/12/29 11:01:25;;;;;;;2.33;0.93;;;;;;;;;;4877651;29;20224;-86
2022/12/29 11:04:20;;;;;;;2.13;1.00;;;;;;;;;;4871888;29;20224;-86
2022/12/29 11:06:45;;;;;;;2.13;1.00;;;;;;;;;;4896525;29;20252;-85
2022/12/29 11:09:34;;;;;;;2.13;1.00;;;;;;;;;;4877506;29;20239;-85
2022/12/29 11:12:36;;;;;;;5.07;1.27;;;;;;;;;;4879741;29;20673;-85
2022/12/29 11:15:08;;;;;;;2.83;1.00;;;;;;;;;;4871239;29;20291;-84
2022/12/29 11:17:50;;;;;;;3.00;1.03;;;;;;;;;;4894523;29;20320;-84
2022/12/29 11:20:33;;;;;;;4.23;1.30;;;;;;;;;;4877513;29;20227;-83
2022/12/29 11:23:02;;;;;;;3.97;1.30;;;;;;;;;;4890519;29;20264;-85
2022/12/29 11:25:28;;;;;;;2.80;1.10;;;;;;;;;;4870242;29;20220;-84
2022/12/29 11:28:14;;;;;;;1.50;1.00;;;;;;;;;;4901400;29;20229;-85
2022/12/29 11:30:39;;;;;;;2.27;1.70;;;;;;;;;;4908404;29;20232;-84
2022/12/29 11:33:06;;;;;;;1.93;1.10;;;;;;;;;;4901629;29;20243;-83
2022/12/29 11:35:36;;;;;;;2.80;1.27;;;;;;;;;;4909641;29;20237;-86
2022/12/29 11:38:06;;;;;;;2.53;1.47;;;;;;;;;;4886256;29;20224;-86
2022/12/29 11:40:33;;;;;;;1.83;1.17;;;;;;;;;;4881495;29;20718;-86
2022/12/29 11:43:02;;;;;;;2.63;1.80;;;;;;;;;;4889901;29;20267;-84
2022/12/29 11:45:36;;;;;;;4.13;1.00;;;;;;;;;;4873728;29;20692;-85
2022/12/29 11:48:19;;;;;;;2.27;1.07;;;;;;;;;;4890984;29;20231;-82
2022/12/29 11:50:51;;;;;;;1.57;0.83;;;;;;;;;;4903776;29;20248;-84
2022/12/29 11:53:26;;;;;;;3.67;1.10;;;;;;;;;;4894974;29;20221;-83
2022/12/29 11:56:02;;;;;;;3.70;1.03;;;;;;;;;;4902314;28;20244;-84
2022/12/29 11:58:32;;;;;;;3.83;0.90;;;;;;;;;;4904079;29;20228;-84
2022/12/29 12:01:00;;;;;;;4.37;1.40;;;;;;;;;;4888865;29;20240;-83
2022/12/29 12:03:29;;;;;;;6.53;1.27;;;;;;;;;;4899113;29;20228;-84
2022/12/29 12:06:05;;;;;;;1.57;0.97;;;;;;;;;;4911760;29;20295;-85
2022/12/29 12:08:54;;;;;;;3.83;1.10;;;;;;;;;;4894517;29;20221;-84
2022/12/29 12:11:37;;;;;;;2.70;1.00;;;;;;;;;;4899937;29;21721;-84
2022/12/29 12:14:42;;;;;;;1.27;0.87;;;;;;;;;;4889059;29;20243;-81
2022/12/29 12:17:37;;;;;;;1.87;1.10;;;;;;;;;;4885620;29;20205;-85
2022/12/29 12:20:28;;;;;;;3.63;1.13;;;;;;;;;;4859881;29;20232;-79
2022/12/29 12:23:29;;;;;;;2.90;1.00;;;;;;;;;;4881100;29;20846;-81
2022/12/29 12:26:12;;;;;;;2.33;0.90;;;;;;;;;;4849980;29;20688;-83
2022/12/29 12:28:40;;;;;;;3.47;1.10;;;;;;;;;;4895251;29;20252;-84
2022/12/29 12:31:28;;;;;;;5.70;1.00;;;;;;;;;;4905616;29;20228;-84
2022/12/29 12:34:01;;;;;;;6.57;1.27;;;;;;;;;;4879159;29;20241;-84
2022/12/29 12:37:10;;;;;;;1.30;1.00;;;;;;;;;;4860958;29;20240;-84
2022/12/29 12:40:08;;;;;;;3.50;1.40;;;;;;;;;;4902196;29;20212;-85
2022/12/29 12:43:11;;;;;;;3.73;1.10;;;;;;;;;;4856655;29;20722;-86
2022/12/29 12:45:51;;;;;;;2.57;1.17;;;;;;;;;;4874686;29;20292;-84
2022/12/29 12:48:23;;;;;;;2.20;0.87;;;;;;;;;;4880016;29;20308;-82
2022/12/29 12:50:58;;;;;;;2.73;1.27;;;;;;;;;;4882623;29;20284;-84
2022/12/29 12:53:51;;;;;;;6.73;4.37;;;;;;;;;;4850153;29;20217;-83
2022/12/29 12:56:49;;;;;;;3.20;1.60;;;;;;;;;;4897531;29;20304;-83
2022/12/29 12:59:21;;;;;;;2.33;0.90;;;;;;;;;;4867931;29;20593;-84
2022/12/29 13:02:08;;;;;;;3.37;1.13;;;;;;;;;;4872248;29;20295;-83
2022/12/29 13:04:59;;;;;;;1.53;0.87;;;;;;;;;;4873662;29;20220;-86
2022/12/29 13:08:26;;;;;;;2.07;1.37;;;;;;;;;;4889348;29;20229;-82
2022/12/29 13:11:13;;;;;;;2.60;0.97;;;;;;;;;;4862667;29;20230;-83
2022/12/29 13:13:45;;;;;;;1.40;0.90;;;;;;;;;;4941961;23;20274;-77
2022/12/29 13:16:41;;;;;;;1.80;1.00;;;;;;;;;;4935486;28;20257;-78
2022/12/29 13:19:27;;;;;;;1.70;1.00;;;;;;;;;;4936273;28;20238;-77
2022/12/29 13:22:11;;;;;;;2.50;0.90;;;;;;;;;;4940144;29;20227;-80
2022/12/29 13:24:46;;;;;;;3.57;1.10;;;;;;;;;;4938746;29;20223;-80
2022/12/29 13:27:53;;;;;;;3.87;1.30;;;;;;;;;;4940647;28;20242;-78
2022/12/29 13:30:40;;;;;;;2.33;1.00;;;;;;;;;;4928957;29;20220;-78
2022/12/29 13:33:45;;;;;;;1.20;0.80;;;;;;;;;;4940147;29;20223;-81
2022/12/29 13:36:34;;;;;;;4.60;1.10;;;;;;;;;;4940718;28;20222;-76
2022/12/29 13:39:11;;;;;;;3.13;1.20;;;;;;;;;;4933649;29;20243;-74
2022/12/29 13:41:56;;;;;;;2.13;0.83;;;;;;;;;;4937559;29;20597;-77
2022/12/29 13:44:41;;;;;;;2.47;1.00;;;;;;;;;;4913512;28;20228;-75
2022/12/29 13:47:35;;;;;;;2.33;1.00;;;;;;;;;;4931010;28;20216;-74
2022/12/29 13:50:01;;;;;;;2.43;1.10;;;;;;;;;;4931096;28;20847;-74
2022/12/29 13:52:44;;;;;;;3.77;1.10;;;;;;;;;;4946849;28;20230;-75
2022/12/29 13:55:25;;;;;;;2.20;1.20;;;;;;;;;;4929846;28;20269;-76
2022/12/29 13:58:12;;;;;;;1.13;0.80;;;;;;;;;;4910509;29;20275;-78
2022/12/29 14:01:05;;;;;;;4.10;1.20;;;;;;;;;;4936634;29;20259;-77
2022/12/29 14:03:56;;;;;;;2.77;1.27;;;;;;;;;;4929099;29;20234;-79
2022/12/29 14:06:23;;;;;;;1.27;1.03;;;;;;;;;;4934452;28;20605;-76
2022/12/29 14:08:48;;;;;;;1.67;0.97;;;;;;;;;;4919381;29;20203;-77
2022/12/29 14:11:15;;;;;;;1.43;0.90;;;;;;;;;;4898460;29;20235;-77
2022/12/29 14:13:43;;;;;;;2.17;0.80;;;;;;;;;;4918918;29;20246;-77
2022/12/29 14:16:25;;;;;;;1.33;0.80;;;;;;;;;;4936151;28;20601;-77
2022/12/29 14:18:51;;;;;;;1.23;0.77;;;;;;;;;;4908663;29;21161;-78
2022/12/29 14:21:27;;;;;;;1.87;0.80;;;;;;;;;;4901750;29;20850;-78
2022/12/29 14:24:20;;;;;;;1.50;0.70;;;;;;;;;;4922178;29;20284;-77
2022/12/29 14:26:48;;;;;;;1.43;0.90;;;;;;;;;;4938317;28;20661;-75
2022/12/29 14:29:28;;;;;;;3.73;1.00;;;;;;;;;;4920534;28;20263;-78
2022/12/29 14:31:54;;;;;;;2.93;1.67;;;;;;;;;;4947781;28;20239;-76
2022/12/29 14:34:22;;;;;;;1.57;0.87;;;;;;;;;;4932209;28;20223;-78
2022/12/29 14:36:59;;;;;;;1.60;1.10;;;;;;;;;;4934892;28;20684;-76
2022/12/29 14:39:30;;;;;;;2.67;1.10;;;;;;;;;;4930341;28;20318;-76
2022/12/29 14:42:05;;;;;;;1.30;0.90;;;;;;;;;;4934331;28;20240;-78
2022/12/29 14:44:34;;;;;;;1.60;1.00;;;;;;;;;;4934443;29;20225;-77
2022/12/29 14:47:08;;;;;;;1.23;1.00;;;;;;;;;;4917332;29;20328;-76
2022/12/29 14:49:41;;;;;;;3.23;1.07;;;;;;;;;;4915507;29;20739;-75
2022/12/29 14:52:25;;;;;;;1.97;1.10;;;;;;;;;;4906961;28;20338;-76
2022/12/29 14:54:51;;;;;;;2.13;0.97;;;;;;;;;;4917467;29;20232;-78
2022/12/29 14:57:27;;;;;;;4.67;1.67;;;;;;;;;;4932797;28;20236;-79
2022/12/29 14:59:58;;;;;;;2.10;1.33;;;;;;;;;;4920521;29;20247;-77
2022/12/29 15:02:24;;;;;;;2.90;1.40;;;;;;;;;;4910344;29;20390;-76
2022/12/29 15:04:53;;;;;;;5.03;2.10;;;;;;;;;;4915571;29;20648;-77
2022/12/29 15:07:18;;;;;;;3.67;1.80;;;;;;;;;;4901102;28;20286;-76
2022/12/29 15:09:49;;;;;;;3.73;2.00;;;;;;;;;;4901176;29;20223;-77
2022/12/29 15:12:37;;;;;;;11.67;5.33;;;;;;;;;;4933684;28;20251;-75
2022/12/29 15:15:17;;;;;;;6.70;3.10;;;;;;;;;;4932144;28;20596;-77
2022/12/29 15:17:43;;;;;;;5.00;2.80;;;;;;;;;;4918886;29;20235;-79
2022/12/29 15:20:29;;;;;;;2.80;1.67;;;;;;;;;;4949639;28;20862;-78
2022/12/29 15:22:57;;;;;;;11.03;5.57;;;;;;;;;;4937165;29;20240;-77
2022/12/29 15:25:22;;;;;;;4.33;2.43;;;;;;;;;;4920244;28;20215;-77
2022/12/29 15:28:01;;;;;;;2.13;1.57;;;;;;;;;;4927100;29;20242;-78
2022/12/29 15:30:30;;;;;;;6.63;2.97;;;;;;;;;;4931213;29;20717;-78
2022/12/29 15:32:58;;;;;;;3.57;2.10;;;;;;;;;;4924145;29;20227;-78
2022/12/29 15:35:32;;;;;;;4.37;1.90;;;;;;;;;;4918881;28;20302;-79
2022/12/29 15:38:13;;;;;;;3.67;1.70;;;;;;;;;;4939307;28;20219;-78
2022/12/29 15:40:38;;;;;;;3.50;1.90;;;;;;;;;;4919073;29;20235;-80
2022/12/29 15:43:39;;;;;;;3.77;1.60;;;;;;;;;;4922544;28;20223;-79
2022/12/29 15:46:07;;;;;;;3.80;1.50;;;;;;;;;;4917258;29;20275;-79
2022/12/29 15:48:34;;;;;;;3.97;1.50;;;;;;;;;;4935156;28;20227;-81
2022/12/29 15:51:00;;;;;;;1.93;1.40;;;;;;;;;;4921818;29;20249;-79